sensor_id;sensor_type;location;lat;lon;timestamp;P1;durP1;ratioP1;P2;durP2;ratioP2
52025;SDS011;38041;40.058;18.328;2022-12-08T00:01:16;114.40;;;26.20;;
52025;SDS011;38041;40.058;18.328;2022-12-08T00:03:43;147.20;;;29.17;;
52025;SDS011;38041;40.058;18.328;2022-12-08T00:06:14;81.77;;;28.13;;
52025;SDS011;38041;40.058;18.328;2022-12-08T00:09:02;79.57;;;28.90;;
52025;SDS011;38041;40.058;18.328;2022-12-08T00:11:53;74.77;;;27.33;;
52025;SDS011;38041;40.058;18.328;2022-12-08T00:14:22;60.33;;;33.30;;
52025;SDS011;38041;40.058;18.328;2022-12-08T00:16:50;51.87;;;34.40;;
52025;SDS011;38041;40.058;18.328;2022-12-08T00:19:18;47.70;;;33.53;;
52025;SDS011;38041;40.058;18.328;2022-12-08T00:21:45;50.03;;;33.27;;
52025;SDS011;38041;40.058;18.328;2022-12-08T00:24:13;48.63;;;32.77;;
52025;SDS011;38041;40.058;18.328;2022-12-08T00:26:41;67.23;;;35.30;;
52025;SDS011;38041;40.058;18.328;2022-12-08T00:29:08;66.93;;;32.90;;
52025;SDS011;38041;40.058;18.328;2022-12-08T00:31:38;52.33;;;34.33;;
52025;SDS011;38041;40.058;18.328;2022-12-08T00:34:06;99.93;;;35.13;;
52025;SDS011;38041;40.058;18.328;2022-12-08T00:36:34;93.93;;;35.77;;
52025;SDS011;38041;40.058;18.328;2022-12-08T00:39:01;95.03;;;35.37;;
52025;SDS011;38041;40.058;18.328;2022-12-08T00:41:29;74.07;;;33.97;;
52025;SDS011;38041;40.058;18.328;2022-12-08T00:44:16;74.40;;;35.60;;
52025;SDS011;38041;40.058;18.328;2022-12-08T00:46:47;55.00;;;31.93;;
52025;SDS011;38041;40.058;18.328;2022-12-08T00:49:15;54.27;;;33.90;;
52025;SDS011;38041;40.058;18.328;2022-12-08T00:51:42;47.90;;;31.50;;
52025;SDS011;38041;40.058;18.328;2022-12-08T00:54:10;53.30;;;30.87;;
52025;SDS011;38041;40.058;18.328;2022-12-08T00:56:38;55.67;;;32.97;;
52025;SDS011;38041;40.058;18.328;2022-12-08T00:59:06;49.13;;;32.73;;
52025;SDS011;38041;40.058;18.328;2022-12-08T01:01:34;56.70;;;33.53;;
52025;SDS011;38041;40.058;18.328;2022-12-08T01:04:03;75.17;;;32.17;;
52025;SDS011;38041;40.058;18.328;2022-12-08T01:06:31;67.80;;;30.33;;
52025;SDS011;38041;40.058;18.328;2022-12-08T01:09:01;47.87;;;29.77;;
52025;SDS011;38041;40.058;18.328;2022-12-08T01:11:29;125.27;;;32.70;;
52025;SDS011;38041;40.058;18.328;2022-12-08T01:13:56;141.27;;;32.67;;
52025;SDS011;38041;40.058;18.328;2022-12-08T01:16:26;78.77;;;30.27;;
52025;SDS011;38041;40.058;18.328;2022-12-08T01:18:54;67.13;;;30.50;;
52025;SDS011;38041;40.058;18.328;2022-12-08T01:21:21;50.47;;;28.70;;
52025;SDS011;38041;40.058;18.328;2022-12-08T01:23:49;43.67;;;24.13;;
52025;SDS011;38041;40.058;18.328;2022-12-08T01:26:17;27.37;;;21.73;;
52025;SDS011;38041;40.058;18.328;2022-12-08T01:28:45;40.43;;;20.00;;
52025;SDS011;38041;40.058;18.328;2022-12-08T01:31:15;34.40;;;20.53;;
52025;SDS011;38041;40.058;18.328;2022-12-08T01:33:43;40.50;;;20.33;;
52025;SDS011;38041;40.058;18.328;2022-12-08T01:36:30;28.70;;;17.27;;
52025;SDS011;38041;40.058;18.328;2022-12-08T01:38:59;33.30;;;13.87;;
52025;SDS011;38041;40.058;18.328;2022-12-08T01:41:28;21.57;;;9.47;;
52025;SDS011;38041;40.058;18.328;2022-12-08T01:46:42;25.73;;;10.57;;
52025;SDS011;38041;40.058;18.328;2022-12-08T01:49:12;26.10;;;9.13;;
52025;SDS011;38041;40.058;18.328;2022-12-08T01:51:51;30.97;;;9.10;;
52025;SDS011;38041;40.058;18.328;2022-12-08T01:54:20;33.10;;;10.40;;
52025;SDS011;38041;40.058;18.328;2022-12-08T01:59:16;33.77;;;7.23;;
52025;SDS011;38041;40.058;18.328;2022-12-08T02:01:48;30.53;;;8.03;;
52025;SDS011;38041;40.058;18.328;2022-12-08T02:04:16;37.30;;;7.60;;
52025;SDS011;38041;40.058;18.328;2022-12-08T02:06:44;33.57;;;6.83;;
52025;SDS011;38041;40.058;18.328;2022-12-08T02:09:13;25.60;;;4.67;;
52025;SDS011;38041;40.058;18.328;2022-12-08T02:11:41;38.03;;;5.60;;
52025;SDS011;38041;40.058;18.328;2022-12-08T02:14:09;31.70;;;4.60;;
52025;SDS011;38041;40.058;18.328;2022-12-08T02:32:29;32.13;;;4.20;;
52025;SDS011;38041;40.058;18.328;2022-12-08T02:37:31;32.43;;;3.93;;
52025;SDS011;38041;40.058;18.328;2022-12-08T02:42:41;45.27;;;4.00;;
52025;SDS011;38041;40.058;18.328;2022-12-08T02:45:30;29.50;;;4.00;;
52025;SDS011;38041;40.058;18.328;2022-12-08T02:48:00;22.67;;;3.17;;
52025;SDS011;38041;40.058;18.328;2022-12-08T02:50:28;24.10;;;4.53;;
52025;SDS011;38041;40.058;18.328;2022-12-08T02:52:56;30.60;;;3.33;;
52025;SDS011;38041;40.058;18.328;2022-12-08T02:55:25;34.33;;;5.20;;
52025;SDS011;38041;40.058;18.328;2022-12-08T03:00:40;28.80;;;5.03;;
52025;SDS011;38041;40.058;18.328;2022-12-08T03:03:25;22.60;;;3.70;;
52025;SDS011;38041;40.058;18.328;2022-12-08T03:09:00;26.57;;;3.63;;
52025;SDS011;38041;40.058;18.328;2022-12-08T03:11:37;23.30;;;3.17;;
52025;SDS011;38041;40.058;18.328;2022-12-08T03:14:06;30.03;;;2.73;;
52025;SDS011;38041;40.058;18.328;2022-12-08T03:16:36;20.33;;;2.10;;
52025;SDS011;38041;40.058;18.328;2022-12-08T03:21:32;15.50;;;1.87;;
52025;SDS011;38041;40.058;18.328;2022-12-08T03:24:02;19.23;;;1.87;;
52025;SDS011;38041;40.058;18.328;2022-12-08T03:26:42;20.37;;;1.70;;
52025;SDS011;38041;40.058;18.328;2022-12-08T03:29:12;14.07;;;2.93;;
52025;SDS011;38041;40.058;18.328;2022-12-08T03:31:41;23.23;;;2.20;;
52025;SDS011;38041;40.058;18.328;2022-12-08T03:34:11;19.90;;;2.47;;
52025;SDS011;38041;40.058;18.328;2022-12-08T03:36:40;22.50;;;2.90;;
52025;SDS011;38041;40.058;18.328;2022-12-08T03:39:08;23.60;;;3.30;;
52025;SDS011;38041;40.058;18.328;2022-12-08T03:41:35;24.93;;;3.23;;
52025;SDS011;38041;40.058;18.328;2022-12-08T03:44:03;24.00;;;3.60;;
52025;SDS011;38041;40.058;18.328;2022-12-08T03:46:31;39.57;;;4.37;;
52025;SDS011;38041;40.058;18.328;2022-12-08T03:48:58;26.93;;;3.10;;
52025;SDS011;38041;40.058;18.328;2022-12-08T03:51:26;24.63;;;3.37;;
52025;SDS011;38041;40.058;18.328;2022-12-08T03:53:54;24.10;;;2.43;;
52025;SDS011;38041;40.058;18.328;2022-12-08T03:56:23;23.07;;;3.70;;
52025;SDS011;38041;40.058;18.328;2022-12-08T03:58:52;29.77;;;5.87;;
52025;SDS011;38041;40.058;18.328;2022-12-08T04:01:21;28.20;;;3.33;;
52025;SDS011;38041;40.058;18.328;2022-12-08T04:03:49;25.00;;;3.50;;
52025;SDS011;38041;40.058;18.328;2022-12-08T04:06:17;22.53;;;3.63;;
52025;SDS011;38041;40.058;18.328;2022-12-08T04:08:45;31.97;;;4.30;;
52025;SDS011;38041;40.058;18.328;2022-12-08T04:11:12;18.93;;;3.83;;
52025;SDS011;38041;40.058;18.328;2022-12-08T04:13:40;19.60;;;2.90;;
52025;SDS011;38041;40.058;18.328;2022-12-08T04:16:13;17.77;;;3.93;;
52025;SDS011;38041;40.058;18.328;2022-12-08T04:18:41;31.33;;;4.63;;
52025;SDS011;38041;40.058;18.328;2022-12-08T04:21:08;22.13;;;2.97;;
52025;SDS011;38041;40.058;18.328;2022-12-08T04:23:36;21.87;;;3.93;;
52025;SDS011;38041;40.058;18.328;2022-12-08T04:26:04;25.67;;;4.00;;
52025;SDS011;38041;40.058;18.328;2022-12-08T04:28:32;17.73;;;3.07;;
52025;SDS011;38041;40.058;18.328;2022-12-08T04:31:01;16.07;;;3.33;;
52025;SDS011;38041;40.058;18.328;2022-12-08T04:33:28;27.60;;;3.37;;
52025;SDS011;38041;40.058;18.328;2022-12-08T04:35:56;22.40;;;2.90;;
52025;SDS011;38041;40.058;18.328;2022-12-08T04:38:24;31.03;;;4.47;;
52025;SDS011;38041;40.058;18.328;2022-12-08T04:40:52;15.53;;;3.30;;
52025;SDS011;38041;40.058;18.328;2022-12-08T04:43:19;31.33;;;2.93;;
52025;SDS011;38041;40.058;18.328;2022-12-08T04:45:47;28.77;;;3.73;;
52025;SDS011;38041;40.058;18.328;2022-12-08T04:48:15;38.43;;;3.83;;
52025;SDS011;38041;40.058;18.328;2022-12-08T04:50:43;26.27;;;2.50;;
52025;SDS011;38041;40.058;18.328;2022-12-08T04:53:11;18.20;;;2.67;;
52025;SDS011;38041;40.058;18.328;2022-12-08T04:55:40;36.90;;;4.43;;
52025;SDS011;38041;40.058;18.328;2022-12-08T04:58:13;27.30;;;4.73;;
52025;SDS011;38041;40.058;18.328;2022-12-08T05:00:41;23.03;;;3.73;;
52025;SDS011;38041;40.058;18.328;2022-12-08T05:03:09;30.80;;;3.67;;
52025;SDS011;38041;40.058;18.328;2022-12-08T05:05:37;20.17;;;4.03;;
52025;SDS011;38041;40.058;18.328;2022-12-08T05:08:05;19.67;;;2.90;;
52025;SDS011;38041;40.058;18.328;2022-12-08T05:10:33;19.33;;;4.10;;
52025;SDS011;38041;40.058;18.328;2022-12-08T05:13:01;28.43;;;6.60;;
52025;SDS011;38041;40.058;18.328;2022-12-08T05:15:28;33.90;;;4.40;;
52025;SDS011;38041;40.058;18.328;2022-12-08T05:17:56;35.03;;;4.70;;
52025;SDS011;38041;40.058;18.328;2022-12-08T05:20:24;22.87;;;3.67;;
52025;SDS011;38041;40.058;18.328;2022-12-08T05:22:51;21.67;;;3.33;;
52025;SDS011;38041;40.058;18.328;2022-12-08T05:25:19;18.40;;;3.70;;
52025;SDS011;38041;40.058;18.328;2022-12-08T05:27:47;24.67;;;5.10;;
52025;SDS011;38041;40.058;18.328;2022-12-08T05:30:15;26.50;;;4.40;;
52025;SDS011;38041;40.058;18.328;2022-12-08T05:32:42;19.87;;;2.80;;
52025;SDS011;38041;40.058;18.328;2022-12-08T05:35:10;29.23;;;4.87;;
52025;SDS011;38041;40.058;18.328;2022-12-08T05:37:38;23.00;;;5.03;;
52025;SDS011;38041;40.058;18.328;2022-12-08T05:40:06;20.13;;;3.13;;
52025;SDS011;38041;40.058;18.328;2022-12-08T05:42:33;24.53;;;5.50;;
52025;SDS011;38041;40.058;18.328;2022-12-08T05:45:01;27.57;;;9.00;;
52025;SDS011;38041;40.058;18.328;2022-12-08T05:47:30;29.43;;;4.70;;
52025;SDS011;38041;40.058;18.328;2022-12-08T05:50:01;23.73;;;3.50;;
52025;SDS011;38041;40.058;18.328;2022-12-08T05:52:29;34.27;;;3.40;;
52025;SDS011;38041;40.058;18.328;2022-12-08T05:54:57;28.60;;;3.90;;
52025;SDS011;38041;40.058;18.328;2022-12-08T05:57:24;27.87;;;4.73;;
52025;SDS011;38041;40.058;18.328;2022-12-08T05:59:52;23.73;;;4.17;;
52025;SDS011;38041;40.058;18.328;2022-12-08T06:02:20;23.30;;;4.23;;
52025;SDS011;38041;40.058;18.328;2022-12-08T06:04:47;23.40;;;5.90;;
52025;SDS011;38041;40.058;18.328;2022-12-08T06:07:15;31.33;;;4.20;;
52025;SDS011;38041;40.058;18.328;2022-12-08T06:09:43;25.90;;;4.80;;
52025;SDS011;38041;40.058;18.328;2022-12-08T06:12:11;23.70;;;3.50;;
52025;SDS011;38041;40.058;18.328;2022-12-08T06:14:38;26.00;;;4.90;;
52025;SDS011;38041;40.058;18.328;2022-12-08T06:17:06;22.63;;;3.43;;
52025;SDS011;38041;40.058;18.328;2022-12-08T06:19:34;27.43;;;3.63;;
52025;SDS011;38041;40.058;18.328;2022-12-08T06:22:02;23.70;;;4.07;;
52025;SDS011;38041;40.058;18.328;2022-12-08T06:24:29;22.47;;;3.83;;
52025;SDS011;38041;40.058;18.328;2022-12-08T06:26:57;29.83;;;7.13;;
52025;SDS011;38041;40.058;18.328;2022-12-08T06:29:25;16.50;;;9.63;;
52025;SDS011;38041;40.058;18.328;2022-12-08T06:31:52;29.57;;;6.63;;
52025;SDS011;38041;40.058;18.328;2022-12-08T06:34:20;33.33;;;5.53;;
52025;SDS011;38041;40.058;18.328;2022-12-08T06:36:48;30.30;;;10.70;;
52025;SDS011;38041;40.058;18.328;2022-12-08T06:39:15;44.03;;;24.57;;
52025;SDS011;38041;40.058;18.328;2022-12-08T06:41:43;40.07;;;10.20;;
52025;SDS011;38041;40.058;18.328;2022-12-08T06:44:29;32.60;;;11.50;;
52025;SDS011;38041;40.058;18.328;2022-12-08T06:46:57;34.00;;;5.80;;
52025;SDS011;38041;40.058;18.328;2022-12-08T06:49:25;37.13;;;7.67;;
52025;SDS011;38041;40.058;18.328;2022-12-08T06:51:52;21.80;;;5.17;;
52025;SDS011;38041;40.058;18.328;2022-12-08T06:54:20;34.63;;;10.07;;
52025;SDS011;38041;40.058;18.328;2022-12-08T06:56:48;28.17;;;4.50;;
52025;SDS011;38041;40.058;18.328;2022-12-08T06:59:15;34.93;;;9.30;;
52025;SDS011;38041;40.058;18.328;2022-12-08T07:01:45;23.87;;;7.53;;
52025;SDS011;38041;40.058;18.328;2022-12-08T07:04:12;24.33;;;5.57;;
52025;SDS011;38041;40.058;18.328;2022-12-08T07:06:40;41.60;;;15.57;;
52025;SDS011;38041;40.058;18.328;2022-12-08T07:09:08;33.40;;;10.03;;
52025;SDS011;38041;40.058;18.328;2022-12-08T07:11:37;57.70;;;29.27;;
52025;SDS011;38041;40.058;18.328;2022-12-08T07:14:05;33.53;;;11.07;;
52025;SDS011;38041;40.058;18.328;2022-12-08T07:16:32;28.53;;;8.30;;
52025;SDS011;38041;40.058;18.328;2022-12-08T07:19:00;35.77;;;9.07;;
52025;SDS011;38041;40.058;18.328;2022-12-08T07:21:28;83.53;;;47.07;;
52025;SDS011;38041;40.058;18.328;2022-12-08T07:23:55;82.63;;;50.37;;
52025;SDS011;38041;40.058;18.328;2022-12-08T07:26:23;71.43;;;38.80;;
52025;SDS011;38041;40.058;18.328;2022-12-08T07:28:52;86.17;;;49.23;;
52025;SDS011;38041;40.058;18.328;2022-12-08T07:31:20;28.03;;;7.20;;
52025;SDS011;38041;40.058;18.328;2022-12-08T07:33:49;31.03;;;7.43;;
52025;SDS011;38041;40.058;18.328;2022-12-08T07:36:17;131.83;;;77.53;;
52025;SDS011;38041;40.058;18.328;2022-12-08T07:38:45;73.67;;;32.60;;
52025;SDS011;38041;40.058;18.328;2022-12-08T07:41:15;41.13;;;9.00;;
52025;SDS011;38041;40.058;18.328;2022-12-08T07:43:43;51.80;;;14.80;;
52025;SDS011;38041;40.058;18.328;2022-12-08T07:46:14;49.30;;;13.43;;
52025;SDS011;38041;40.058;18.328;2022-12-08T07:48:42;42.83;;;10.60;;
52025;SDS011;38041;40.058;18.328;2022-12-08T07:51:11;51.40;;;12.60;;
52025;SDS011;38041;40.058;18.328;2022-12-08T07:53:39;35.20;;;7.60;;
52025;SDS011;38041;40.058;18.328;2022-12-08T07:56:08;63.47;;;28.40;;
52025;SDS011;38041;40.058;18.328;2022-12-08T07:58:36;53.90;;;16.60;;
52025;SDS011;38041;40.058;18.328;2022-12-08T08:01:04;47.83;;;14.13;;
52025;SDS011;38041;40.058;18.328;2022-12-08T08:03:32;55.50;;;9.07;;
52025;SDS011;38041;40.058;18.328;2022-12-08T08:06:03;63.30;;;18.50;;
52025;SDS011;38041;40.058;18.328;2022-12-08T08:08:31;71.57;;;26.60;;
52025;SDS011;38041;40.058;18.328;2022-12-08T08:10:59;59.60;;;16.57;;
52025;SDS011;38041;40.058;18.328;2022-12-08T08:13:28;69.53;;;21.87;;
52025;SDS011;38041;40.058;18.328;2022-12-08T08:16:01;68.33;;;27.57;;
52025;SDS011;38041;40.058;18.328;2022-12-08T08:18:29;72.60;;;26.17;;
52025;SDS011;38041;40.058;18.328;2022-12-08T08:20:56;59.70;;;20.17;;
52025;SDS011;38041;40.058;18.328;2022-12-08T08:23:32;55.72;;;18.73;;
52025;SDS011;38041;40.058;18.328;2022-12-08T08:26:01;37.00;;;8.60;;
52025;SDS011;38041;40.058;18.328;2022-12-08T08:28:29;58.63;;;17.93;;
52025;SDS011;38041;40.058;18.328;2022-12-08T08:30:57;65.03;;;21.90;;
52025;SDS011;38041;40.058;18.328;2022-12-08T08:33:25;40.10;;;12.67;;
52025;SDS011;38041;40.058;18.328;2022-12-08T08:35:53;64.90;;;16.53;;
52025;SDS011;38041;40.058;18.328;2022-12-08T08:38:21;45.97;;;6.60;;
52025;SDS011;38041;40.058;18.328;2022-12-08T08:40:49;54.67;;;12.13;;
52025;SDS011;38041;40.058;18.328;2022-12-08T08:43:16;38.93;;;7.37;;
52025;SDS011;38041;40.058;18.328;2022-12-08T08:46:02;45.55;;;8.82;;
52025;SDS011;38041;40.058;18.328;2022-12-08T08:48:30;52.97;;;20.23;;
52025;SDS011;38041;40.058;18.328;2022-12-08T08:51:05;49.63;;;11.33;;
52025;SDS011;38041;40.058;18.328;2022-12-08T08:53:33;65.25;;;25.80;;
52025;SDS011;38041;40.058;18.328;2022-12-08T08:56:01;89.57;;;41.90;;
52025;SDS011;38041;40.058;18.328;2022-12-08T08:58:30;31.53;;;6.07;;
52025;SDS011;38041;40.058;18.328;2022-12-08T09:00:58;44.97;;;17.87;;
52025;SDS011;38041;40.058;18.328;2022-12-08T09:03:26;60.67;;;24.77;;
52025;SDS011;38041;40.058;18.328;2022-12-08T09:05:54;44.43;;;17.00;;
52025;SDS011;38041;40.058;18.328;2022-12-08T09:08:22;42.67;;;14.10;;
52025;SDS011;38041;40.058;18.328;2022-12-08T09:10:50;50.73;;;11.10;;
52025;SDS011;38041;40.058;18.328;2022-12-08T09:13:17;43.97;;;9.70;;
52025;SDS011;38041;40.058;18.328;2022-12-08T09:15:45;34.73;;;6.73;;
52025;SDS011;38041;40.058;18.328;2022-12-08T09:18:13;33.33;;;6.17;;
52025;SDS011;38041;40.058;18.328;2022-12-08T09:20:41;39.93;;;7.00;;
52025;SDS011;38041;40.058;18.328;2022-12-08T09:23:08;26.25;;;7.50;;
52025;SDS011;38041;40.058;18.328;2022-12-08T09:25:36;32.27;;;4.43;;
52025;SDS011;38041;40.058;18.328;2022-12-08T09:28:04;40.43;;;6.00;;
52025;SDS011;38041;40.058;18.328;2022-12-08T09:30:31;28.95;;;6.65;;
52025;SDS011;38041;40.058;18.328;2022-12-08T09:32:59;33.47;;;4.15;;
52025;SDS011;38041;40.058;18.328;2022-12-08T09:35:27;31.73;;;4.45;;
52025;SDS011;38041;40.058;18.328;2022-12-08T09:37:54;35.03;;;5.68;;
52025;SDS011;38041;40.058;18.328;2022-12-08T09:40:22;39.22;;;9.30;;
52025;SDS011;38041;40.058;18.328;2022-12-08T09:42:52;42.40;;;9.52;;
52025;SDS011;38041;40.058;18.328;2022-12-08T09:45:22;38.03;;;4.32;;
52025;SDS011;38041;40.058;18.328;2022-12-08T09:52:56;29.10;;;6.72;;
52025;SDS011;38041;40.058;18.328;2022-12-08T09:56:08;25.23;;;5.78;;
52025;SDS011;38041;40.058;18.328;2022-12-08T10:00:58;36.58;;;9.65;;
52025;SDS011;38041;40.058;18.328;2022-12-08T10:03:27;32.50;;;9.93;;
52025;SDS011;38041;40.058;18.328;2022-12-08T10:05:58;33.10;;;4.45;;
52025;SDS011;38041;40.058;18.328;2022-12-08T10:08:30;52.25;;;21.63;;
52025;SDS011;38041;40.058;18.328;2022-12-08T10:11:02;22.98;;;4.53;;
52025;SDS011;38041;40.058;18.328;2022-12-08T10:13:43;25.80;;;7.20;;
52025;SDS011;38041;40.058;18.328;2022-12-08T10:18:59;34.72;;;3.53;;
52025;SDS011;38041;40.058;18.328;2022-12-08T10:21:27;28.10;;;5.10;;
52025;SDS011;38041;40.058;18.328;2022-12-08T10:24:01;33.30;;;7.63;;
52025;SDS011;38041;40.058;18.328;2022-12-08T10:26:30;24.15;;;2.97;;
52025;SDS011;38041;40.058;18.328;2022-12-08T10:29:00;31.13;;;4.32;;
52025;SDS011;38041;40.058;18.328;2022-12-08T10:31:29;35.22;;;3.95;;
52025;SDS011;38041;40.058;18.328;2022-12-08T10:33:58;30.65;;;7.32;;
52025;SDS011;38041;40.058;18.328;2022-12-08T10:39:28;35.22;;;11.02;;
52025;SDS011;38041;40.058;18.328;2022-12-08T10:42:00;35.97;;;13.75;;
52025;SDS011;38041;40.058;18.328;2022-12-08T10:44:28;26.20;;;5.95;;
52025;SDS011;38041;40.058;18.328;2022-12-08T10:46:56;41.33;;;14.50;;
52025;SDS011;38041;40.058;18.328;2022-12-08T10:49:25;30.63;;;5.72;;
52025;SDS011;38041;40.058;18.328;2022-12-08T10:51:53;26.35;;;3.72;;
52025;SDS011;38041;40.058;18.328;2022-12-08T10:56:56;36.78;;;2.28;;
52025;SDS011;38041;40.058;18.328;2022-12-08T10:59:24;24.33;;;2.90;;
52025;SDS011;38041;40.058;18.328;2022-12-08T11:01:53;31.58;;;2.40;;
52025;SDS011;38041;40.058;18.328;2022-12-08T11:04:34;25.27;;;2.75;;
52025;SDS011;38041;40.058;18.328;2022-12-08T11:07:06;23.67;;;2.78;;
52025;SDS011;38041;40.058;18.328;2022-12-08T11:09:38;29.70;;;4.30;;
52025;SDS011;38041;40.058;18.328;2022-12-08T11:12:12;23.70;;;3.17;;
52025;SDS011;38041;40.058;18.328;2022-12-08T11:19:37;40.17;;;4.30;;
52025;SDS011;38041;40.058;18.328;2022-12-08T11:22:20;44.47;;;4.90;;
52025;SDS011;38041;40.058;18.328;2022-12-08T11:27:29;28.85;;;3.38;;
52025;SDS011;38041;40.058;18.328;2022-12-08T11:29:59;37.60;;;4.23;;
52025;SDS011;38041;40.058;18.328;2022-12-08T11:32:27;36.80;;;4.33;;
52025;SDS011;38041;40.058;18.328;2022-12-08T11:34:56;27.88;;;2.90;;
52025;SDS011;38041;40.058;18.328;2022-12-08T11:40:02;28.57;;;2.40;;
52025;SDS011;38041;40.058;18.328;2022-12-08T11:42:33;29.48;;;2.78;;
52025;SDS011;38041;40.058;18.328;2022-12-08T11:45:06;35.35;;;2.97;;
52025;SDS011;38041;40.058;18.328;2022-12-08T11:47:36;25.02;;;2.13;;
52025;SDS011;38041;40.058;18.328;2022-12-08T11:50:19;32.20;;;3.42;;
52025;SDS011;38041;40.058;18.328;2022-12-08T11:52:49;35.13;;;3.80;;
52025;SDS011;38041;40.058;18.328;2022-12-08T11:58:43;32.63;;;7.13;;
52025;SDS011;38041;40.058;18.328;2022-12-08T12:01:15;43.67;;;7.60;;
52025;SDS011;38041;40.058;18.328;2022-12-08T12:03:46;25.90;;;3.92;;
52025;SDS011;38041;40.058;18.328;2022-12-08T12:09:41;46.03;;;11.18;;
52025;SDS011;38041;40.058;18.328;2022-12-08T12:12:23;36.55;;;7.75;;
52025;SDS011;38041;40.058;18.328;2022-12-08T12:20:23;35.60;;;5.45;;
52025;SDS011;38041;40.058;18.328;2022-12-08T12:22:55;38.50;;;4.55;;
52025;SDS011;38041;40.058;18.328;2022-12-08T12:25:24;40.33;;;9.73;;
52025;SDS011;38041;40.058;18.328;2022-12-08T12:27:55;36.85;;;4.55;;
52025;SDS011;38041;40.058;18.328;2022-12-08T12:30:24;27.58;;;4.07;;
52025;SDS011;38041;40.058;18.328;2022-12-08T12:35:26;35.40;;;6.10;;
52025;SDS011;38041;40.058;18.328;2022-12-08T12:37:57;33.60;;;3.97;;
52025;SDS011;38041;40.058;18.328;2022-12-08T12:40:26;25.67;;;8.68;;
52025;SDS011;38041;40.058;18.328;2022-12-08T12:45:27;40.47;;;11.35;;
52025;SDS011;38041;40.058;18.328;2022-12-08T12:53:01;37.65;;;12.32;;
52025;SDS011;38041;40.058;18.328;2022-12-08T12:58:22;29.98;;;3.90;;
52025;SDS011;38041;40.058;18.328;2022-12-08T13:03:35;29.67;;;3.95;;
52025;SDS011;38041;40.058;18.328;2022-12-08T13:06:03;26.58;;;3.35;;
52025;SDS011;38041;40.058;18.328;2022-12-08T13:08:34;41.65;;;9.00;;
52025;SDS011;38041;40.058;18.328;2022-12-08T13:11:03;34.10;;;4.03;;
52025;SDS011;38041;40.058;18.328;2022-12-08T13:13:32;33.55;;;3.03;;
52025;SDS011;38041;40.058;18.328;2022-12-08T13:16:03;30.83;;;3.83;;
52025;SDS011;38041;40.058;18.328;2022-12-08T13:18:42;30.58;;;2.70;;
52025;SDS011;38041;40.058;18.328;2022-12-08T13:21:13;32.30;;;4.00;;
52025;SDS011;38041;40.058;18.328;2022-12-08T13:26:28;31.13;;;2.60;;
52025;SDS011;38041;40.058;18.328;2022-12-08T13:31:37;28.27;;;2.97;;
52025;SDS011;38041;40.058;18.328;2022-12-08T13:34:11;26.98;;;3.35;;
52025;SDS011;38041;40.058;18.328;2022-12-08T13:36:48;28.25;;;4.18;;
52025;SDS011;38041;40.058;18.328;2022-12-08T13:39:25;21.88;;;3.13;;
52025;SDS011;38041;40.058;18.328;2022-12-08T13:42:03;24.15;;;3.55;;
52025;SDS011;38041;40.058;18.328;2022-12-08T13:44:44;36.70;;;3.63;;
52025;SDS011;38041;40.058;18.328;2022-12-08T13:47:36;24.65;;;4.28;;
52025;SDS011;38041;40.058;18.328;2022-12-08T13:50:16;32.05;;;3.38;;
52025;SDS011;38041;40.058;18.328;2022-12-08T13:59:22;24.58;;;2.80;;
52025;SDS011;38041;40.058;18.328;2022-12-08T14:01:52;29.27;;;3.78;;
52025;SDS011;38041;40.058;18.328;2022-12-08T14:04:21;43.70;;;6.53;;
52025;SDS011;38041;40.058;18.328;2022-12-08T14:07:07;33.38;;;5.75;;
52025;SDS011;38041;40.058;18.328;2022-12-08T14:09:36;34.10;;;5.43;;
52025;SDS011;38041;40.058;18.328;2022-12-08T14:14:38;34.70;;;4.75;;
52025;SDS011;38041;40.058;18.328;2022-12-08T14:17:27;38.38;;;10.60;;
52025;SDS011;38041;40.058;18.328;2022-12-08T14:20:03;35.83;;;6.25;;
52025;SDS011;38041;40.058;18.328;2022-12-08T14:22:35;43.05;;;5.85;;
52025;SDS011;38041;40.058;18.328;2022-12-08T14:25:03;40.60;;;10.10;;
52025;SDS011;38041;40.058;18.328;2022-12-08T14:27:33;45.50;;;6.40;;
52025;SDS011;38041;40.058;18.328;2022-12-08T14:30:02;34.75;;;8.95;;
52025;SDS011;38041;40.058;18.328;2022-12-08T14:33:05;39.10;;;11.57;;
52025;SDS011;38041;40.058;18.328;2022-12-08T14:35:26;42.13;;;6.68;;
52025;SDS011;38041;40.058;18.328;2022-12-08T14:37:55;35.95;;;8.48;;
52025;SDS011;38041;40.058;18.328;2022-12-08T14:40:26;48.40;;;13.20;;
52025;SDS011;38041;40.058;18.328;2022-12-08T14:53:34;30.05;;;6.28;;
52025;SDS011;38041;40.058;18.328;2022-12-08T14:56:51;26.05;;;4.80;;
52025;SDS011;38041;40.058;18.328;2022-12-08T14:59:10;35.92;;;11.85;;
52025;SDS011;38041;40.058;18.328;2022-12-08T15:01:39;34.45;;;8.07;;
52025;SDS011;38041;40.058;18.328;2022-12-08T15:04:16;37.53;;;5.65;;
52025;SDS011;38041;40.058;18.328;2022-12-08T15:09:14;40.28;;;10.38;;
52025;SDS011;38041;40.058;18.328;2022-12-08T15:11:42;38.22;;;6.53;;
52025;SDS011;38041;40.058;18.328;2022-12-08T15:14:30;36.10;;;6.90;;
52025;SDS011;38041;40.058;18.328;2022-12-08T15:16:58;38.53;;;5.63;;
52025;SDS011;38041;40.058;18.328;2022-12-08T15:19:26;38.53;;;7.93;;
52025;SDS011;38041;40.058;18.328;2022-12-08T15:21:56;47.77;;;20.47;;
52025;SDS011;38041;40.058;18.328;2022-12-08T15:24:25;57.93;;;27.50;;
52025;SDS011;38041;40.058;18.328;2022-12-08T15:26:54;95.87;;;48.73;;
52025;SDS011;38041;40.058;18.328;2022-12-08T15:31:50;87.57;;;36.10;;
52025;SDS011;38041;40.058;18.328;2022-12-08T15:34:19;73.23;;;27.47;;
52025;SDS011;38041;40.058;18.328;2022-12-08T15:36:48;60.20;;;23.40;;
52025;SDS011;38041;40.058;18.328;2022-12-08T15:39:20;52.67;;;21.00;;
52025;SDS011;38041;40.058;18.328;2022-12-08T15:44:18;41.57;;;11.57;;
52025;SDS011;38041;40.058;18.328;2022-12-08T15:46:46;40.63;;;11.17;;
52025;SDS011;38041;40.058;18.328;2022-12-08T15:49:16;49.13;;;12.70;;
52025;SDS011;38041;40.058;18.328;2022-12-08T15:51:44;41.00;;;12.10;;
52025;SDS011;38041;40.058;18.328;2022-12-08T15:54:12;46.40;;;11.37;;
52025;SDS011;38041;40.058;18.328;2022-12-08T15:56:41;39.97;;;9.77;;
52025;SDS011;38041;40.058;18.328;2022-12-08T15:59:22;48.67;;;11.00;;
52025;SDS011;38041;40.058;18.328;2022-12-08T16:01:50;36.70;;;8.43;;
52025;SDS011;38041;40.058;18.328;2022-12-08T16:04:19;42.77;;;8.97;;
52025;SDS011;38041;40.058;18.328;2022-12-08T16:07:41;43.27;;;9.63;;
52025;SDS011;38041;40.058;18.328;2022-12-08T16:10:04;33.87;;;7.37;;
52025;SDS011;38041;40.058;18.328;2022-12-08T16:12:32;39.30;;;13.50;;
52025;SDS011;38041;40.058;18.328;2022-12-08T16:15:39;48.35;;;12.85;;
52025;SDS011;38041;40.058;18.328;2022-12-08T16:18:20;42.43;;;7.87;;
52025;SDS011;38041;40.058;18.328;2022-12-08T16:20:49;38.37;;;10.57;;
52025;SDS011;38041;40.058;18.328;2022-12-08T16:23:32;38.63;;;12.57;;
52025;SDS011;38041;40.058;18.328;2022-12-08T16:26:09;38.78;;;12.10;;
52025;SDS011;38041;40.058;18.328;2022-12-08T16:28:57;55.30;;;14.77;;
52025;SDS011;38041;40.058;18.328;2022-12-08T16:31:25;41.37;;;9.17;;
52025;SDS011;38041;40.058;18.328;2022-12-08T16:33:53;34.47;;;9.50;;
52025;SDS011;38041;40.058;18.328;2022-12-08T16:36:21;38.93;;;15.40;;